sensor_id;sensor_type;location;lat;lon;timestamp;P1;durP1;ratioP1;P2;durP2;ratioP2
56136;SDS011;42008;52.934;5.884;2023-03-31T00:01:48;49.53;;;7.30;;
56136;SDS011;42008;52.934;5.884;2023-03-31T00:04:13;45.30;;;6.43;;
56136;SDS011;42008;52.934;5.884;2023-03-31T00:06:40;39.27;;;6.80;;
56136;SDS011;42008;52.934;5.884;2023-03-31T00:09:07;47.07;;;6.80;;
56136;SDS011;42008;52.934;5.884;2023-03-31T00:11:38;46.67;;;7.40;;
56136;SDS011;42008;52.934;5.884;2023-03-31T00:14:04;44.00;;;6.83;;
56136;SDS011;42008;52.934;5.884;2023-03-31T00:16:31;41.57;;;6.90;;
56136;SDS011;42008;52.934;5.884;2023-03-31T00:18:58;40.53;;;7.47;;
56136;SDS011;42008;52.934;5.884;2023-03-31T00:21:26;43.07;;;6.73;;
56136;SDS011;42008;52.934;5.884;2023-03-31T00:24:02;42.13;;;6.27;;
56136;SDS011;42008;52.934;5.884;2023-03-31T00:26:29;42.57;;;7.27;;
56136;SDS011;42008;52.934;5.884;2023-03-31T00:28:55;39.10;;;6.27;;
56136;SDS011;42008;52.934;5.884;2023-03-31T00:31:22;36.80;;;5.60;;
56136;SDS011;42008;52.934;5.884;2023-03-31T00:33:48;43.20;;;6.33;;
56136;SDS011;42008;52.934;5.884;2023-03-31T00:36:14;43.20;;;6.60;;
56136;SDS011;42008;52.934;5.884;2023-03-31T00:38:48;44.13;;;6.70;;
56136;SDS011;42008;52.934;5.884;2023-03-31T00:41:15;31.50;;;5.77;;
56136;SDS011;42008;52.934;5.884;2023-03-31T00:46:26;39.13;;;6.30;;
56136;SDS011;42008;52.934;5.884;2023-03-31T00:48:56;36.57;;;5.80;;
56136;SDS011;42008;52.934;5.884;2023-03-31T00:51:23;44.23;;;6.93;;
56136;SDS011;42008;52.934;5.884;2023-03-31T00:53:53;32.37;;;5.80;;
56136;SDS011;42008;52.934;5.884;2023-03-31T00:56:24;36.30;;;6.38;;
56136;SDS011;42008;52.934;5.884;2023-03-31T00:58:52;45.23;;;6.57;;
56136;SDS011;42008;52.934;5.884;2023-03-31T01:01:22;37.43;;;6.40;;
56136;SDS011;42008;52.934;5.884;2023-03-31T01:03:50;42.67;;;5.73;;
56136;SDS011;42008;52.934;5.884;2023-03-31T01:06:17;35.40;;;6.03;;
56136;SDS011;42008;52.934;5.884;2023-03-31T01:08:44;38.33;;;6.63;;
56136;SDS011;42008;52.934;5.884;2023-03-31T01:11:12;35.97;;;5.60;;
56136;SDS011;42008;52.934;5.884;2023-03-31T01:13:41;30.53;;;5.03;;
56136;SDS011;42008;52.934;5.884;2023-03-31T01:16:07;38.97;;;6.00;;
56136;SDS011;42008;52.934;5.884;2023-03-31T01:18:33;37.77;;;6.20;;
56136;SDS011;42008;52.934;5.884;2023-03-31T01:24:03;39.00;;;5.50;;
56136;SDS011;42008;52.934;5.884;2023-03-31T01:43:34;35.20;;;5.53;;
56136;SDS011;42008;52.934;5.884;2023-03-31T01:46:19;31.93;;;5.23;;
56136;SDS011;42008;52.934;5.884;2023-03-31T01:49:16;46.37;;;6.60;;
56136;SDS011;42008;52.934;5.884;2023-03-31T01:51:51;37.33;;;5.37;;
56136;SDS011;42008;52.934;5.884;2023-03-31T01:54:29;34.33;;;5.07;;
56136;SDS011;42008;52.934;5.884;2023-03-31T01:59:48;35.33;;;5.50;;
56136;SDS011;42008;52.934;5.884;2023-03-31T02:02:28;37.17;;;5.47;;
56136;SDS011;42008;52.934;5.884;2023-03-31T02:05:02;33.63;;;5.83;;
56136;SDS011;42008;52.934;5.884;2023-03-31T02:07:36;37.93;;;5.37;;
56136;SDS011;42008;52.934;5.884;2023-03-31T02:10:06;41.17;;;5.63;;
56136;SDS011;42008;52.934;5.884;2023-03-31T02:12:35;32.70;;;5.13;;
56136;SDS011;42008;52.934;5.884;2023-03-31T02:15:05;46.57;;;6.73;;
56136;SDS011;42008;52.934;5.884;2023-03-31T02:17:34;37.73;;;4.93;;
56136;SDS011;42008;52.934;5.884;2023-03-31T02:20:06;38.73;;;5.83;;
56136;SDS011;42008;52.934;5.884;2023-03-31T02:22:38;31.63;;;5.30;;
56136;SDS011;42008;52.934;5.884;2023-03-31T02:25:05;33.50;;;4.93;;
56136;SDS011;42008;52.934;5.884;2023-03-31T02:27:39;35.73;;;4.73;;
56136;SDS011;42008;52.934;5.884;2023-03-31T02:30:10;36.90;;;5.10;;
56136;SDS011;42008;52.934;5.884;2023-03-31T02:32:42;39.77;;;5.43;;
56136;SDS011;42008;52.934;5.884;2023-03-31T02:35:13;39.43;;;5.60;;
56136;SDS011;42008;52.934;5.884;2023-03-31T02:37:41;32.80;;;5.37;;
56136;SDS011;42008;52.934;5.884;2023-03-31T02:40:09;30.97;;;5.10;;
56136;SDS011;42008;52.934;5.884;2023-03-31T02:42:39;29.37;;;5.40;;
56136;SDS011;42008;52.934;5.884;2023-03-31T02:45:35;28.07;;;5.03;;
56136;SDS011;42008;52.934;5.884;2023-03-31T02:48:50;26.77;;;5.10;;
56136;SDS011;42008;52.934;5.884;2023-03-31T03:02:50;22.37;;;4.47;;
56136;SDS011;42008;52.934;5.884;2023-03-31T03:13:34;22.60;;;5.33;;
56136;SDS011;42008;52.934;5.884;2023-03-31T03:16:13;19.60;;;4.50;;
56136;SDS011;42008;52.934;5.884;2023-03-31T03:19:07;29.90;;;5.63;;
56136;SDS011;42008;52.934;5.884;2023-03-31T03:21:33;22.50;;;5.27;;
56136;SDS011;42008;52.934;5.884;2023-03-31T03:23:59;23.30;;;5.03;;
56136;SDS011;42008;52.934;5.884;2023-03-31T03:26:25;21.57;;;4.47;;
56136;SDS011;42008;52.934;5.884;2023-03-31T03:28:54;29.37;;;5.73;;
56136;SDS011;42008;52.934;5.884;2023-03-31T03:31:21;23.37;;;4.83;;
56136;SDS011;42008;52.934;5.884;2023-03-31T03:33:48;28.20;;;5.03;;
56136;SDS011;42008;52.934;5.884;2023-03-31T03:36:14;27.30;;;6.03;;
56136;SDS011;42008;52.934;5.884;2023-03-31T03:38:40;21.07;;;5.60;;
56136;SDS011;42008;52.934;5.884;2023-03-31T03:41:06;27.17;;;6.33;;
56136;SDS011;42008;52.934;5.884;2023-03-31T03:43:31;25.00;;;6.43;;
56136;SDS011;42008;52.934;5.884;2023-03-31T03:45:57;28.40;;;6.40;;
56136;SDS011;42008;52.934;5.884;2023-03-31T03:48:23;20.37;;;6.20;;
56136;SDS011;42008;52.934;5.884;2023-03-31T03:50:48;19.10;;;6.80;;
56136;SDS011;42008;52.934;5.884;2023-03-31T03:53:14;29.13;;;7.10;;
56136;SDS011;42008;52.934;5.884;2023-03-31T03:55:40;23.90;;;6.73;;
56136;SDS011;42008;52.934;5.884;2023-03-31T03:58:05;24.60;;;6.53;;
56136;SDS011;42008;52.934;5.884;2023-03-31T04:00:31;25.13;;;6.53;;
56136;SDS011;42008;52.934;5.884;2023-03-31T04:02:57;28.20;;;7.07;;
56136;SDS011;42008;52.934;5.884;2023-03-31T04:05:23;22.33;;;6.90;;
56136;SDS011;42008;52.934;5.884;2023-03-31T04:07:48;26.90;;;7.10;;
56136;SDS011;42008;52.934;5.884;2023-03-31T04:10:14;24.93;;;7.53;;
56136;SDS011;42008;52.934;5.884;2023-03-31T04:12:40;23.80;;;7.23;;
56136;SDS011;42008;52.934;5.884;2023-03-31T04:15:06;23.83;;;8.00;;
56136;SDS011;42008;52.934;5.884;2023-03-31T04:17:32;18.27;;;7.07;;
56136;SDS011;42008;52.934;5.884;2023-03-31T04:19:59;20.30;;;6.73;;
56136;SDS011;42008;52.934;5.884;2023-03-31T04:22:27;19.03;;;6.43;;
56136;SDS011;42008;52.934;5.884;2023-03-31T04:27:28;20.83;;;7.63;;
56136;SDS011;42008;52.934;5.884;2023-03-31T04:29:55;22.33;;;7.37;;
56136;SDS011;42008;52.934;5.884;2023-03-31T04:32:21;25.37;;;7.33;;
56136;SDS011;42008;52.934;5.884;2023-03-31T04:34:47;28.97;;;7.63;;
56136;SDS011;42008;52.934;5.884;2023-03-31T04:37:14;24.30;;;8.27;;
56136;SDS011;42008;52.934;5.884;2023-03-31T04:39:41;24.43;;;8.50;;
56136;SDS011;42008;52.934;5.884;2023-03-31T04:42:10;22.80;;;7.57;;
56136;SDS011;42008;52.934;5.884;2023-03-31T04:44:36;23.10;;;8.50;;
56136;SDS011;42008;52.934;5.884;2023-03-31T04:47:01;21.37;;;7.93;;
56136;SDS011;42008;52.934;5.884;2023-03-31T04:49:27;26.70;;;8.17;;
56136;SDS011;42008;52.934;5.884;2023-03-31T04:51:53;27.67;;;9.17;;
56136;SDS011;42008;52.934;5.884;2023-03-31T04:54:18;24.17;;;8.60;;
56136;SDS011;42008;52.934;5.884;2023-03-31T04:56:44;22.50;;;8.27;;
56136;SDS011;42008;52.934;5.884;2023-03-31T04:59:10;27.93;;;9.60;;
56136;SDS011;42008;52.934;5.884;2023-03-31T05:01:35;25.57;;;8.87;;
56136;SDS011;42008;52.934;5.884;2023-03-31T05:04:01;28.63;;;9.47;;
56136;SDS011;42008;52.934;5.884;2023-03-31T05:06:28;25.77;;;9.60;;
56136;SDS011;42008;52.934;5.884;2023-03-31T05:08:55;26.20;;;9.80;;
56136;SDS011;42008;52.934;5.884;2023-03-31T05:11:20;22.80;;;9.37;;
56136;SDS011;42008;52.934;5.884;2023-03-31T05:13:46;24.60;;;9.97;;
56136;SDS011;42008;52.934;5.884;2023-03-31T05:16:12;24.60;;;10.30;;
56136;SDS011;42008;52.934;5.884;2023-03-31T05:18:39;25.10;;;9.97;;
56136;SDS011;42008;52.934;5.884;2023-03-31T05:21:12;23.37;;;10.07;;
56136;SDS011;42008;52.934;5.884;2023-03-31T05:23:39;26.33;;;10.00;;
56136;SDS011;42008;52.934;5.884;2023-03-31T05:26:05;23.93;;;9.70;;
56136;SDS011;42008;52.934;5.884;2023-03-31T05:28:32;24.33;;;10.43;;
56136;SDS011;42008;52.934;5.884;2023-03-31T05:30:59;25.73;;;9.87;;
56136;SDS011;42008;52.934;5.884;2023-03-31T05:33:27;22.10;;;9.20;;
56136;SDS011;42008;52.934;5.884;2023-03-31T05:35:54;27.60;;;8.90;;
56136;SDS011;42008;52.934;5.884;2023-03-31T05:38:20;19.63;;;8.70;;
56136;SDS011;42008;52.934;5.884;2023-03-31T05:40:46;22.60;;;8.50;;
56136;SDS011;42008;52.934;5.884;2023-03-31T05:43:12;24.63;;;7.87;;
56136;SDS011;42008;52.934;5.884;2023-03-31T05:45:38;22.77;;;8.47;;
56136;SDS011;42008;52.934;5.884;2023-03-31T05:48:04;26.67;;;8.80;;
56136;SDS011;42008;52.934;5.884;2023-03-31T05:50:29;18.23;;;7.00;;
56136;SDS011;42008;52.934;5.884;2023-03-31T05:52:55;19.83;;;6.47;;
56136;SDS011;42008;52.934;5.884;2023-03-31T05:55:21;16.87;;;6.13;;
56136;SDS011;42008;52.934;5.884;2023-03-31T05:57:47;17.40;;;5.73;;
56136;SDS011;42008;52.934;5.884;2023-03-31T06:00:13;14.70;;;5.87;;
56136;SDS011;42008;52.934;5.884;2023-03-31T06:02:39;14.57;;;5.87;;
56136;SDS011;42008;52.934;5.884;2023-03-31T06:05:05;14.30;;;5.20;;
56136;SDS011;42008;52.934;5.884;2023-03-31T06:07:31;17.60;;;5.73;;
56136;SDS011;42008;52.934;5.884;2023-03-31T06:09:56;19.27;;;5.67;;
56136;SDS011;42008;52.934;5.884;2023-03-31T06:12:22;16.90;;;4.97;;
56136;SDS011;42008;52.934;5.884;2023-03-31T06:14:47;21.27;;;5.63;;
56136;SDS011;42008;52.934;5.884;2023-03-31T06:17:13;11.97;;;4.40;;
56136;SDS011;42008;52.934;5.884;2023-03-31T06:19:39;18.10;;;4.80;;
56136;SDS011;42008;52.934;5.884;2023-03-31T06:22:04;13.27;;;4.83;;
56136;SDS011;42008;52.934;5.884;2023-03-31T06:24:30;11.30;;;4.30;;
56136;SDS011;42008;52.934;5.884;2023-03-31T06:26:55;17.43;;;4.50;;
56136;SDS011;42008;52.934;5.884;2023-03-31T06:29:21;17.27;;;4.33;;
56136;SDS011;42008;52.934;5.884;2023-03-31T06:31:46;14.40;;;4.17;;
56136;SDS011;42008;52.934;5.884;2023-03-31T06:34:12;19.40;;;5.73;;
56136;SDS011;42008;52.934;5.884;2023-03-31T06:36:37;11.47;;;3.97;;
56136;SDS011;42008;52.934;5.884;2023-03-31T06:39:03;9.97;;;3.50;;
56136;SDS011;42008;52.934;5.884;2023-03-31T06:41:28;11.27;;;3.67;;
56136;SDS011;42008;52.934;5.884;2023-03-31T06:43:54;10.13;;;3.10;;
56136;SDS011;42008;52.934;5.884;2023-03-31T06:46:20;11.07;;;3.37;;
56136;SDS011;42008;52.934;5.884;2023-03-31T06:48:45;11.93;;;3.60;;
56136;SDS011;42008;52.934;5.884;2023-03-31T06:51:11;13.33;;;3.77;;
56136;SDS011;42008;52.934;5.884;2023-03-31T06:53:37;13.67;;;3.53;;
56136;SDS011;42008;52.934;5.884;2023-03-31T06:56:03;11.77;;;3.60;;
56136;SDS011;42008;52.934;5.884;2023-03-31T06:58:29;12.03;;;4.07;;
56136;SDS011;42008;52.934;5.884;2023-03-31T07:00:55;12.23;;;3.43;;
56136;SDS011;42008;52.934;5.884;2023-03-31T07:03:21;10.07;;;3.27;;
56136;SDS011;42008;52.934;5.884;2023-03-31T07:05:49;14.50;;;3.80;;
56136;SDS011;42008;52.934;5.884;2023-03-31T07:08:15;16.57;;;5.30;;
56136;SDS011;42008;52.934;5.884;2023-03-31T07:10:42;17.03;;;6.07;;
56136;SDS011;42008;52.934;5.884;2023-03-31T07:13:11;17.00;;;7.10;;
56136;SDS011;42008;52.934;5.884;2023-03-31T07:15:37;15.83;;;7.47;;
56136;SDS011;42008;52.934;5.884;2023-03-31T07:18:02;21.20;;;8.17;;
56136;SDS011;42008;52.934;5.884;2023-03-31T07:20:28;20.97;;;8.13;;
56136;SDS011;42008;52.934;5.884;2023-03-31T07:22:54;20.23;;;8.60;;
56136;SDS011;42008;52.934;5.884;2023-03-31T07:25:20;17.83;;;9.23;;
56136;SDS011;42008;52.934;5.884;2023-03-31T07:27:46;20.77;;;11.10;;
56136;SDS011;42008;52.934;5.884;2023-03-31T07:30:13;20.67;;;9.10;;
56136;SDS011;42008;52.934;5.884;2023-03-31T07:32:40;22.37;;;9.97;;
56136;SDS011;42008;52.934;5.884;2023-03-31T07:35:06;15.37;;;6.63;;
56136;SDS011;42008;52.934;5.884;2023-03-31T07:37:34;14.50;;;5.10;;
56136;SDS011;42008;52.934;5.884;2023-03-31T07:40:08;8.90;;;4.05;;
56136;SDS011;42008;52.934;5.884;2023-03-31T07:42:39;13.67;;;5.27;;
56136;SDS011;42008;52.934;5.884;2023-03-31T07:45:06;14.03;;;4.83;;
56136;SDS011;42008;52.934;5.884;2023-03-31T07:47:32;14.97;;;5.00;;
56136;SDS011;42008;52.934;5.884;2023-03-31T07:49:58;12.00;;;5.10;;
56136;SDS011;42008;52.934;5.884;2023-03-31T07:52:23;13.07;;;4.63;;
56136;SDS011;42008;52.934;5.884;2023-03-31T07:54:49;11.80;;;4.10;;
56136;SDS011;42008;52.934;5.884;2023-03-31T07:57:15;13.80;;;4.50;;
56136;SDS011;42008;52.934;5.884;2023-03-31T07:59:43;11.63;;;4.30;;
56136;SDS011;42008;52.934;5.884;2023-03-31T08:02:10;15.47;;;4.60;;
56136;SDS011;42008;52.934;5.884;2023-03-31T08:04:37;14.63;;;4.10;;
56136;SDS011;42008;52.934;5.884;2023-03-31T08:07:06;12.43;;;3.70;;
56136;SDS011;42008;52.934;5.884;2023-03-31T08:09:35;14.70;;;4.23;;
56136;SDS011;42008;52.934;5.884;2023-03-31T08:12:02;13.37;;;4.60;;
56136;SDS011;42008;52.934;5.884;2023-03-31T08:14:28;10.73;;;3.80;;
56136;SDS011;42008;52.934;5.884;2023-03-31T08:16:53;10.47;;;3.90;;
56136;SDS011;42008;52.934;5.884;2023-03-31T08:19:19;9.03;;;3.47;;
56136;SDS011;42008;52.934;5.884;2023-03-31T08:21:46;10.17;;;3.90;;
56136;SDS011;42008;52.934;5.884;2023-03-31T08:24:12;9.27;;;3.10;;
56136;SDS011;42008;52.934;5.884;2023-03-31T08:26:37;10.63;;;3.30;;
56136;SDS011;42008;52.934;5.884;2023-03-31T08:29:05;17.20;;;4.60;;
56136;SDS011;42008;52.934;5.884;2023-03-31T08:31:31;17.60;;;3.80;;
56136;SDS011;42008;52.934;5.884;2023-03-31T08:33:57;15.00;;;3.70;;
56136;SDS011;42008;52.934;5.884;2023-03-31T08:36:23;13.17;;;6.20;;
56136;SDS011;42008;52.934;5.884;2023-03-31T08:38:50;11.40;;;3.40;;
56136;SDS011;42008;52.934;5.884;2023-03-31T08:44:24;11.30;;;3.47;;
56136;SDS011;42008;52.934;5.884;2023-03-31T08:47:15;12.25;;;3.75;;
56136;SDS011;42008;52.934;5.884;2023-03-31T08:49:48;15.80;;;3.90;;
56136;SDS011;42008;52.934;5.884;2023-03-31T08:52:26;13.93;;;3.57;;
56136;SDS011;42008;52.934;5.884;2023-03-31T08:54:57;12.07;;;4.43;;
56136;SDS011;42008;52.934;5.884;2023-03-31T08:57:27;8.30;;;3.30;;
56136;SDS011;42008;52.934;5.884;2023-03-31T09:00:00;15.40;;;4.03;;
56136;SDS011;42008;52.934;5.884;2023-03-31T09:07:57;11.53;;;3.63;;
56136;SDS011;42008;52.934;5.884;2023-03-31T09:10:42;8.93;;;3.40;;
56136;SDS011;42008;52.934;5.884;2023-03-31T09:16:07;9.53;;;3.33;;
56136;SDS011;42008;52.934;5.884;2023-03-31T09:18:42;11.13;;;4.10;;
56136;SDS011;42008;52.934;5.884;2023-03-31T09:24:24;12.27;;;4.10;;
56136;SDS011;42008;52.934;5.884;2023-03-31T09:26:39;8.40;;;3.80;;
56136;SDS011;42008;52.934;5.884;2023-03-31T09:29:12;11.80;;;3.97;;
56136;SDS011;42008;52.934;5.884;2023-03-31T09:31:43;11.20;;;3.80;;
56136;SDS011;42008;52.934;5.884;2023-03-31T09:34:14;10.43;;;3.80;;
56136;SDS011;42008;52.934;5.884;2023-03-31T09:36:45;8.90;;;3.70;;
56136;SDS011;42008;52.934;5.884;2023-03-31T09:39:11;9.57;;;3.23;;
56136;SDS011;42008;52.934;5.884;2023-03-31T09:41:39;9.07;;;3.10;;
56136;SDS011;42008;52.934;5.884;2023-03-31T09:44:22;17.07;;;3.70;;
56136;SDS011;42008;52.934;5.884;2023-03-31T09:46:56;8.87;;;3.47;;
56136;SDS011;42008;52.934;5.884;2023-03-31T09:49:26;7.87;;;3.07;;
56136;SDS011;42008;52.934;5.884;2023-03-31T09:52:03;12.00;;;3.00;;
56136;SDS011;42008;52.934;5.884;2023-03-31T09:54:49;10.03;;;2.60;;
56136;SDS011;42008;52.934;5.884;2023-03-31T09:57:30;8.33;;;3.00;;
56136;SDS011;42008;52.934;5.884;2023-03-31T10:02:55;10.27;;;2.87;;
56136;SDS011;42008;52.934;5.884;2023-03-31T10:05:30;7.03;;;2.33;;
56136;SDS011;42008;52.934;5.884;2023-03-31T10:08:19;9.37;;;3.17;;
56136;SDS011;42008;52.934;5.884;2023-03-31T10:13:28;10.40;;;3.23;;
56136;SDS011;42008;52.934;5.884;2023-03-31T10:18:51;12.07;;;2.97;;
56136;SDS011;42008;52.934;5.884;2023-03-31T10:23:47;13.17;;;3.30;;
56136;SDS011;42008;52.934;5.884;2023-03-31T10:26:22;8.47;;;2.83;;
56136;SDS011;42008;52.934;5.884;2023-03-31T10:28:51;14.57;;;3.10;;
56136;SDS011;42008;52.934;5.884;2023-03-31T10:31:19;16.03;;;3.40;;
56136;SDS011;42008;52.934;5.884;2023-03-31T10:33:50;9.63;;;3.10;;
56136;SDS011;42008;52.934;5.884;2023-03-31T10:36:20;10.83;;;2.90;;
56136;SDS011;42008;52.934;5.884;2023-03-31T10:38:48;12.13;;;3.20;;
56136;SDS011;42008;52.934;5.884;2023-03-31T10:41:22;13.97;;;3.33;;
56136;SDS011;42008;52.934;5.884;2023-03-31T10:43:52;14.27;;;3.40;;
56136;SDS011;42008;52.934;5.884;2023-03-31T10:46:19;12.77;;;3.13;;
56136;SDS011;42008;52.934;5.884;2023-03-31T10:48:45;13.87;;;3.20;;
56136;SDS011;42008;52.934;5.884;2023-03-31T10:51:26;12.93;;;2.90;;
56136;SDS011;42008;52.934;5.884;2023-03-31T10:53:53;18.10;;;4.07;;
56136;SDS011;42008;52.934;5.884;2023-03-31T10:56:31;12.52;;;3.10;;
56136;SDS011;42008;52.934;5.884;2023-03-31T10:59:03;11.90;;;2.80;;
56136;SDS011;42008;52.934;5.884;2023-03-31T11:04:46;14.57;;;3.30;;
56136;SDS011;42008;52.934;5.884;2023-03-31T11:07:20;11.53;;;3.37;;
56136;SDS011;42008;52.934;5.884;2023-03-31T11:12:59;12.07;;;3.23;;
56136;SDS011;42008;52.934;5.884;2023-03-31T11:18:50;10.03;;;3.70;;
56136;SDS011;42008;52.934;5.884;2023-03-31T11:21:18;13.57;;;3.93;;
56136;SDS011;42008;52.934;5.884;2023-03-31T11:23:55;15.63;;;3.93;;
56136;SDS011;42008;52.934;5.884;2023-03-31T11:26:57;13.80;;;3.80;;
56136;SDS011;42008;52.934;5.884;2023-03-31T11:29:43;11.23;;;3.30;;
56136;SDS011;42008;52.934;5.884;2023-03-31T11:43:28;14.57;;;3.30;;
56136;SDS011;42008;52.934;5.884;2023-03-31T11:46:02;13.83;;;3.47;;
56136;SDS011;42008;52.934;5.884;2023-03-31T11:51:31;14.83;;;3.33;;
56136;SDS011;42008;52.934;5.884;2023-03-31T11:54:09;13.27;;;3.90;;
56136;SDS011;42008;52.934;5.884;2023-03-31T11:56:43;10.53;;;3.17;;
56136;SDS011;42008;52.934;5.884;2023-03-31T11:59:10;14.97;;;4.17;;
56136;SDS011;42008;52.934;5.884;2023-03-31T12:06:47;14.93;;;4.10;;
56136;SDS011;42008;52.934;5.884;2023-03-31T12:09:28;15.70;;;3.93;;
56136;SDS011;42008;52.934;5.884;2023-03-31T12:11:56;15.17;;;4.20;;
56136;SDS011;42008;52.934;5.884;2023-03-31T12:14:36;16.77;;;4.40;;
56136;SDS011;42008;52.934;5.884;2023-03-31T12:17:10;17.20;;;3.93;;
56136;SDS011;42008;52.934;5.884;2023-03-31T12:24:55;12.00;;;4.00;;
56136;SDS011;42008;52.934;5.884;2023-03-31T12:27:25;16.43;;;3.70;;
56136;SDS011;42008;52.934;5.884;2023-03-31T12:30:06;19.00;;;3.90;;
56136;SDS011;42008;52.934;5.884;2023-03-31T12:32:56;14.50;;;4.03;;
56136;SDS011;42008;52.934;5.884;2023-03-31T12:35:28;12.07;;;3.67;;
56136;SDS011;42008;52.934;5.884;2023-03-31T12:38:18;11.63;;;3.07;;
56136;SDS011;42008;52.934;5.884;2023-03-31T12:43:29;10.90;;;2.63;;
56136;SDS011;42008;52.934;5.884;2023-03-31T12:49:07;12.47;;;2.90;;
56136;SDS011;42008;52.934;5.884;2023-03-31T12:51:58;12.23;;;2.77;;
56136;SDS011;42008;52.934;5.884;2023-03-31T12:54:43;14.00;;;3.10;;
56136;SDS011;42008;52.934;5.884;2023-03-31T12:57:35;14.60;;;2.87;;
56136;SDS011;42008;52.934;5.884;2023-03-31T13:02:32;14.17;;;2.87;;
56136;SDS011;42008;52.934;5.884;2023-03-31T13:04:57;7.90;;;2.00;;
56136;SDS011;42008;52.934;5.884;2023-03-31T13:09:58;11.07;;;2.03;;
56136;SDS011;42008;52.934;5.884;2023-03-31T13:12:42;6.97;;;1.80;;
56136;SDS011;42008;52.934;5.884;2023-03-31T13:15:23;7.38;;;2.20;;
56136;SDS011;42008;52.934;5.884;2023-03-31T13:17:57;7.70;;;1.70;;
56136;SDS011;42008;52.934;5.884;2023-03-31T13:20:30;10.93;;;2.30;;
56136;SDS011;42008;52.934;5.884;2023-03-31T13:35:40;8.97;;;1.97;;
56136;SDS011;42008;52.934;5.884;2023-03-31T13:38:26;8.37;;;2.10;;
56136;SDS011;42008;52.934;5.884;2023-03-31T13:41:23;10.50;;;2.35;;
56136;SDS011;42008;52.934;5.884;2023-03-31T13:44:06;8.47;;;2.10;;
56136;SDS011;42008;52.934;5.884;2023-03-31T14:04:03;9.43;;;2.07;;
56136;SDS011;42008;52.934;5.884;2023-03-31T14:09:39;10.23;;;1.70;;
56136;SDS011;42008;52.934;5.884;2023-03-31T14:15:06;7.37;;;2.20;;
56136;SDS011;42008;52.934;5.884;2023-03-31T14:17:41;9.73;;;2.37;;
56136;SDS011;42008;52.934;5.884;2023-03-31T14:20:29;7.83;;;2.00;;
56136;SDS011;42008;52.934;5.884;2023-03-31T14:25:58;11.57;;;3.03;;
56136;SDS011;42008;52.934;5.884;2023-03-31T14:36:47;7.47;;;1.53;;
56136;SDS011;42008;52.934;5.884;2023-03-31T14:39:29;8.50;;;1.70;;
56136;SDS011;42008;52.934;5.884;2023-03-31T14:41:58;7.97;;;1.97;;
56136;SDS011;42008;52.934;5.884;2023-03-31T14:46:57;8.03;;;2.13;;
56136;SDS011;42008;52.934;5.884;2023-03-31T14:49:33;10.03;;;2.37;;
56136;SDS011;42008;52.934;5.884;2023-03-31T14:52:03;8.53;;;1.93;;
56136;SDS011;42008;52.934;5.884;2023-03-31T14:54:44;8.48;;;1.90;;
56136;SDS011;42008;52.934;5.884;2023-03-31T14:57:12;12.67;;;2.53;;
56136;SDS011;42008;52.934;5.884;2023-03-31T14:59:42;9.33;;;2.40;;
56136;SDS011;42008;52.934;5.884;2023-03-31T15:02:08;7.53;;;1.93;;
56136;SDS011;42008;52.934;5.884;2023-03-31T15:07:09;9.13;;;2.03;;
56136;SDS011;42008;52.934;5.884;2023-03-31T15:09:36;11.33;;;3.20;;
56136;SDS011;42008;52.934;5.884;2023-03-31T15:12:03;7.97;;;1.87;;
56136;SDS011;42008;52.934;5.884;2023-03-31T15:14:43;10.93;;;2.53;;
56136;SDS011;42008;52.934;5.884;2023-03-31T15:17:18;9.50;;;2.37;;
56136;SDS011;42008;52.934;5.884;2023-03-31T15:19:50;7.80;;;2.07;;
56136;SDS011;42008;52.934;5.884;2023-03-31T15:22:22;12.83;;;2.57;;
56136;SDS011;42008;52.934;5.884;2023-03-31T15:24:53;8.50;;;2.17;;
56136;SDS011;42008;52.934;5.884;2023-03-31T15:29:53;16.53;;;2.90;;
56136;SDS011;42008;52.934;5.884;2023-03-31T15:32:23;15.60;;;2.87;;
56136;SDS011;42008;52.934;5.884;2023-03-31T15:34:51;13.53;;;2.90;;
56136;SDS011;42008;52.934;5.884;2023-03-31T15:37:25;10.53;;;2.80;;
56136;SDS011;42008;52.934;5.884;2023-03-31T15:39:56;13.47;;;4.10;;
56136;SDS011;42008;52.934;5.884;2023-03-31T15:42:24;8.73;;;2.70;;
56136;SDS011;42008;52.934;5.884;2023-03-31T15:47:49;13.63;;;2.33;;
56136;SDS011;42008;52.934;5.884;2023-03-31T15:50:16;13.70;;;2.60;;
56136;SDS011;42008;52.934;5.884;2023-03-31T15:52:46;11.83;;;2.60;;
56136;SDS011;42008;52.934;5.884;2023-03-31T15:55:24;12.03;;;3.20;;
56136;SDS011;42008;52.934;5.884;2023-03-31T15:57:52;10.37;;;2.67;;
56136;SDS011;42008;52.934;5.884;2023-03-31T16:03:23;11.43;;;2.60;;
56136;SDS011;42008;52.934;5.884;2023-03-31T16:05:54;9.60;;;2.00;;
56136;SDS011;42008;52.934;5.884;2023-03-31T16:08:27;10.70;;;2.23;;
56136;SDS011;42008;52.934;5.884;2023-03-31T16:11:00;9.13;;;2.10;;
56136;SDS011;42008;52.934;5.884;2023-03-31T16:13:31;8.53;;;2.20;;
56136;SDS011;42008;52.934;5.884;2023-03-31T16:15:57;7.80;;;2.07;;
56136;SDS011;42008;52.934;5.884;2023-03-31T16:20:55;13.13;;;2.27;;
56136;SDS011;42008;52.934;5.884;2023-03-31T16:23:26;9.67;;;2.10;;
56136;SDS011;42008;52.934;5.884;2023-03-31T16:25:54;14.35;;;2.90;;
56136;SDS011;42008;52.934;5.884;2023-03-31T16:28:21;11.13;;;3.17;;
56136;SDS011;42008;52.934;5.884;2023-03-31T16:30:52;9.30;;;3.40;;
56136;SDS011;42008;52.934;5.884;2023-03-31T16:33:20;6.53;;;1.80;;
56136;SDS011;42008;52.934;5.884;2023-03-31T16:35:48;6.87;;;2.47;;
56136;SDS011;42008;52.934;5.884;2023-03-31T16:38:17;7.93;;;1.90;;
56136;SDS011;42008;52.934;5.884;2023-03-31T16:40:46;9.33;;;2.40;;
56136;SDS011;42008;52.934;5.884;2023-03-31T16:45:47;7.00;;;3.37;;
56136;SDS011;42008;52.934;5.884;2023-03-31T16:48:15;5.37;;;2.60;;
56136;SDS011;42008;52.934;5.884;2023-03-31T16:50:43;4.23;;;1.27;;
56136;SDS011;42008;52.934;5.884;2023-03-31T16:53:11;5.10;;;1.30;;
56136;SDS011;42008;52.934;5.884;2023-03-31T16:55:37;5.83;;;1.60;;
56136;SDS011;42008;52.934;5.884;2023-03-31T16:58:03;7.00;;;1.40;;
56136;SDS011;42008;52.934;5.884;2023-03-31T17:00:29;3.50;;;1.13;;
56136;SDS011;42008;52.934;5.884;2023-03-31T17:02:55;5.53;;;1.50;;
56136;SDS011;42008;52.934;5.884;2023-03-31T17:05:22;6.00;;;1.60;;
56136;SDS011;42008;52.934;5.884;2023-03-31T17:07:49;6.00;;;1.20;;
56136;SDS011;42008;52.934;5.884;2023-03-31T17:10:15;3.43;;;1.37;;
56136;SDS011;42008;52.934;5.884;2023-03-31T17:12:41;4.90;;;1.60;;
56136;SDS011;42008;52.934;5.884;2023-03-31T17:15:07;4.67;;;1.30;;
56136;SDS011;42008;52.934;5.884;2023-03-31T17:17:33;5.40;;;1.30;;
56136;SDS011;42008;52.934;5.884;2023-03-31T17:19:59;3.33;;;1.20;;
56136;SDS011;42008;52.934;5.884;2023-03-31T17:22:24;3.17;;;1.00;;
56136;SDS011;42008;52.934;5.884;2023-03-31T17:24:50;4.97;;;1.57;;
56136;SDS011;42008;52.934;5.884;2023-03-31T17:27:22;4.10;;;1.10;;
56136;SDS011;42008;52.934;5.884;2023-03-31T17:29:51;4.07;;;1.20;;
56136;SDS011;42008;52.934;5.884;2023-03-31T17:32:17;5.17;;;1.53;;
56136;SDS011;42008;52.934;5.884;2023-03-31T17:34:43;4.03;;;1.20;;
56136;SDS011;42008;52.934;5.884;2023-03-31T17:37:11;6.03;;;1.80;;
56136;SDS011;42008;52.934;5.884;2023-03-31T17:39:37;6.17;;;1.63;;
56136;SDS011;42008;52.934;5.884;2023-03-31T17:42:03;7.43;;;1.80;;
56136;SDS011;42008;52.934;5.884;2023-03-31T17:44:29;3.67;;;1.77;;
56136;SDS011;42008;52.934;5.884;2023-03-31T17:46:55;8.27;;;2.23;;
56136;SDS011;42008;52.934;5.884;2023-03-31T17:49:21;6.10;;;2.13;;
56136;SDS011;42008;52.934;5.884;2023-03-31T17:51:47;6.37;;;1.90;;
56136;SDS011;42008;52.934;5.884;2023-03-31T17:54:13;9.70;;;3.00;;
56136;SDS011;42008;52.934;5.884;2023-03-31T17:56:39;9.80;;;3.57;;
56136;SDS011;42008;52.934;5.884;2023-03-31T17:59:06;14.17;;;7.27;;